sensor_id;sensor_type;location;lat;lon;timestamp;P1;durP1;ratioP1;P2;durP2;ratioP2
31734;SDS011;18313;48.518;9.124;2023-08-20T00:01:25;8.35;;;5.55;;
31734;SDS011;18313;48.518;9.124;2023-08-20T00:03:54;12.60;;;6.47;;
31734;SDS011;18313;48.518;9.124;2023-08-20T00:06:23;12.85;;;6.53;;
31734;SDS011;18313;48.518;9.124;2023-08-20T00:08:50;9.75;;;5.75;;
31734;SDS011;18313;48.518;9.124;2023-08-20T00:11:18;12.07;;;5.97;;
31734;SDS011;18313;48.518;9.124;2023-08-20T00:13:45;9.18;;;6.07;;
31734;SDS011;18313;48.518;9.124;2023-08-20T00:16:12;11.25;;;5.90;;
31734;SDS011;18313;48.518;9.124;2023-08-20T00:18:40;8.95;;;6.13;;
31734;SDS011;18313;48.518;9.124;2023-08-20T00:21:07;11.95;;;6.07;;
31734;SDS011;18313;48.518;9.124;2023-08-20T00:23:35;14.70;;;6.10;;
31734;SDS011;18313;48.518;9.124;2023-08-20T00:26:03;11.77;;;5.93;;
31734;SDS011;18313;48.518;9.124;2023-08-20T00:28:31;11.43;;;6.30;;
31734;SDS011;18313;48.518;9.124;2023-08-20T00:31:00;8.68;;;5.88;;
31734;SDS011;18313;48.518;9.124;2023-08-20T00:33:28;8.98;;;6.22;;
31734;SDS011;18313;48.518;9.124;2023-08-20T00:35:55;10.00;;;5.88;;
31734;SDS011;18313;48.518;9.124;2023-08-20T00:38:22;12.40;;;6.55;;
31734;SDS011;18313;48.518;9.124;2023-08-20T00:40:49;10.85;;;6.35;;
31734;SDS011;18313;48.518;9.124;2023-08-20T00:43:16;9.57;;;6.47;;
31734;SDS011;18313;48.518;9.124;2023-08-20T00:45:43;11.63;;;6.38;;
31734;SDS011;18313;48.518;9.124;2023-08-20T00:48:11;9.20;;;6.40;;
31734;SDS011;18313;48.518;9.124;2023-08-20T00:50:38;12.02;;;6.93;;
31734;SDS011;18313;48.518;9.124;2023-08-20T00:53:07;11.50;;;6.45;;
31734;SDS011;18313;48.518;9.124;2023-08-20T00:55:38;11.40;;;6.78;;
31734;SDS011;18313;48.518;9.124;2023-08-20T00:58:05;9.00;;;6.43;;
31734;SDS011;18313;48.518;9.124;2023-08-20T01:00:32;8.18;;;6.38;;
31734;SDS011;18313;48.518;9.124;2023-08-20T01:03:00;10.02;;;6.32;;
31734;SDS011;18313;48.518;9.124;2023-08-20T01:05:29;10.23;;;6.50;;
31734;SDS011;18313;48.518;9.124;2023-08-20T01:11:03;8.60;;;6.38;;
31734;SDS011;18313;48.518;9.124;2023-08-20T01:13:36;9.85;;;7.40;;
31734;SDS011;18313;48.518;9.124;2023-08-20T01:16:03;12.27;;;6.57;;
31734;SDS011;18313;48.518;9.124;2023-08-20T01:18:30;11.48;;;6.75;;
31734;SDS011;18313;48.518;9.124;2023-08-20T01:20:58;10.13;;;6.60;;
31734;SDS011;18313;48.518;9.124;2023-08-20T01:28:32;13.02;;;6.95;;
31734;SDS011;18313;48.518;9.124;2023-08-20T01:31:00;9.02;;;6.60;;
31734;SDS011;18313;48.518;9.124;2023-08-20T01:33:29;11.85;;;7.50;;
31734;SDS011;18313;48.518;9.124;2023-08-20T01:35:57;12.55;;;7.10;;
31734;SDS011;18313;48.518;9.124;2023-08-20T01:38:25;11.13;;;7.03;;
31734;SDS011;18313;48.518;9.124;2023-08-20T01:40:53;10.23;;;7.57;;
31734;SDS011;18313;48.518;9.124;2023-08-20T01:43:20;11.13;;;7.18;;
31734;SDS011;18313;48.518;9.124;2023-08-20T01:45:47;12.45;;;7.75;;
31734;SDS011;18313;48.518;9.124;2023-08-20T01:48:14;10.20;;;6.70;;
31734;SDS011;18313;48.518;9.124;2023-08-20T01:50:41;9.23;;;7.05;;
31734;SDS011;18313;48.518;9.124;2023-08-20T01:53:08;12.65;;;7.20;;
31734;SDS011;18313;48.518;9.124;2023-08-20T01:55:36;8.38;;;7.35;;
31734;SDS011;18313;48.518;9.124;2023-08-20T01:58:03;11.75;;;7.80;;
31734;SDS011;18313;48.518;9.124;2023-08-20T02:00:30;8.88;;;7.18;;
31734;SDS011;18313;48.518;9.124;2023-08-20T02:03:00;10.95;;;7.25;;
31734;SDS011;18313;48.518;9.124;2023-08-20T02:05:27;11.52;;;7.57;;
31734;SDS011;18313;48.518;9.124;2023-08-20T02:07:54;12.25;;;7.00;;
31734;SDS011;18313;48.518;9.124;2023-08-20T02:10:21;11.35;;;7.03;;
31734;SDS011;18313;48.518;9.124;2023-08-20T02:12:48;10.18;;;7.60;;
31734;SDS011;18313;48.518;9.124;2023-08-20T02:15:15;11.60;;;7.25;;
31734;SDS011;18313;48.518;9.124;2023-08-20T02:17:42;12.10;;;7.72;;
31734;SDS011;18313;48.518;9.124;2023-08-20T02:20:10;9.30;;;7.20;;
31734;SDS011;18313;48.518;9.124;2023-08-20T02:22:37;11.18;;;7.95;;
31734;SDS011;18313;48.518;9.124;2023-08-20T02:25:04;10.63;;;7.18;;
31734;SDS011;18313;48.518;9.124;2023-08-20T02:27:31;10.82;;;7.55;;
31734;SDS011;18313;48.518;9.124;2023-08-20T02:29:59;11.05;;;8.30;;
31734;SDS011;18313;48.518;9.124;2023-08-20T02:32:26;11.27;;;8.00;;
31734;SDS011;18313;48.518;9.124;2023-08-20T02:34:53;12.27;;;7.70;;
31734;SDS011;18313;48.518;9.124;2023-08-20T02:37:20;13.57;;;7.50;;
31734;SDS011;18313;48.518;9.124;2023-08-20T02:39:47;13.45;;;8.30;;
31734;SDS011;18313;48.518;9.124;2023-08-20T02:42:14;10.80;;;8.20;;
31734;SDS011;18313;48.518;9.124;2023-08-20T02:44:41;9.98;;;7.65;;
31734;SDS011;18313;48.518;9.124;2023-08-20T02:47:08;10.20;;;7.82;;
31734;SDS011;18313;48.518;9.124;2023-08-20T02:49:35;10.55;;;7.75;;
31734;SDS011;18313;48.518;9.124;2023-08-20T02:52:02;11.32;;;7.57;;
31734;SDS011;18313;48.518;9.124;2023-08-20T02:54:30;9.68;;;7.95;;
31734;SDS011;18313;48.518;9.124;2023-08-20T02:56:58;11.40;;;7.97;;
31734;SDS011;18313;48.518;9.124;2023-08-20T02:59:26;11.30;;;7.82;;
31734;SDS011;18313;48.518;9.124;2023-08-20T03:01:53;12.00;;;7.47;;
31734;SDS011;18313;48.518;9.124;2023-08-20T03:04:21;13.20;;;8.02;;
31734;SDS011;18313;48.518;9.124;2023-08-20T03:06:48;11.73;;;7.82;;
31734;SDS011;18313;48.518;9.124;2023-08-20T03:09:15;12.63;;;7.72;;
31734;SDS011;18313;48.518;9.124;2023-08-20T03:11:42;9.30;;;7.80;;
31734;SDS011;18313;48.518;9.124;2023-08-20T03:14:09;11.80;;;7.85;;
31734;SDS011;18313;48.518;9.124;2023-08-20T03:16:37;13.85;;;8.45;;
31734;SDS011;18313;48.518;9.124;2023-08-20T03:19:04;9.90;;;8.23;;
31734;SDS011;18313;48.518;9.124;2023-08-20T03:21:31;11.07;;;8.13;;
31734;SDS011;18313;48.518;9.124;2023-08-20T03:23:58;12.88;;;8.23;;
31734;SDS011;18313;48.518;9.124;2023-08-20T03:26:25;12.05;;;8.40;;
31734;SDS011;18313;48.518;9.124;2023-08-20T03:28:52;12.05;;;8.20;;
31734;SDS011;18313;48.518;9.124;2023-08-20T03:31:19;13.77;;;8.40;;
31734;SDS011;18313;48.518;9.124;2023-08-20T03:33:46;15.60;;;8.30;;
31734;SDS011;18313;48.518;9.124;2023-08-20T03:36:14;13.80;;;8.57;;
31734;SDS011;18313;48.518;9.124;2023-08-20T03:38:41;11.50;;;8.38;;
31734;SDS011;18313;48.518;9.124;2023-08-20T03:41:08;11.55;;;8.30;;
31734;SDS011;18313;48.518;9.124;2023-08-20T03:43:35;15.20;;;8.85;;
31734;SDS011;18313;48.518;9.124;2023-08-20T03:46:03;13.60;;;9.05;;
31734;SDS011;18313;48.518;9.124;2023-08-20T03:48:30;13.80;;;8.18;;
31734;SDS011;18313;48.518;9.124;2023-08-20T03:50:57;9.35;;;8.00;;
31734;SDS011;18313;48.518;9.124;2023-08-20T03:53:24;11.60;;;7.93;;
31734;SDS011;18313;48.518;9.124;2023-08-20T03:55:51;13.90;;;8.57;;
31734;SDS011;18313;48.518;9.124;2023-08-20T03:58:18;13.82;;;8.32;;
31734;SDS011;18313;48.518;9.124;2023-08-20T04:00:45;11.60;;;8.10;;
31734;SDS011;18313;48.518;9.124;2023-08-20T04:03:12;11.05;;;7.82;;
31734;SDS011;18313;48.518;9.124;2023-08-20T04:05:40;11.05;;;7.70;;
31734;SDS011;18313;48.518;9.124;2023-08-20T04:08:07;11.80;;;8.90;;
31734;SDS011;18313;48.518;9.124;2023-08-20T04:10:34;13.52;;;8.65;;
31734;SDS011;18313;48.518;9.124;2023-08-20T04:13:01;13.43;;;8.32;;
31734;SDS011;18313;48.518;9.124;2023-08-20T04:15:28;13.45;;;9.10;;
31734;SDS011;18313;48.518;9.124;2023-08-20T04:17:55;14.18;;;9.20;;
31734;SDS011;18313;48.518;9.124;2023-08-20T04:20:22;11.90;;;8.95;;
31734;SDS011;18313;48.518;9.124;2023-08-20T04:22:50;12.23;;;8.45;;
31734;SDS011;18313;48.518;9.124;2023-08-20T04:25:17;10.98;;;8.80;;
31734;SDS011;18313;48.518;9.124;2023-08-20T04:27:44;11.82;;;8.55;;
31734;SDS011;18313;48.518;9.124;2023-08-20T04:30:11;10.00;;;8.13;;
31734;SDS011;18313;48.518;9.124;2023-08-20T04:32:38;12.52;;;8.38;;
31734;SDS011;18313;48.518;9.124;2023-08-20T04:35:05;11.30;;;8.38;;
31734;SDS011;18313;48.518;9.124;2023-08-20T04:37:32;11.55;;;8.55;;
31734;SDS011;18313;48.518;9.124;2023-08-20T04:40:00;11.02;;;8.70;;
31734;SDS011;18313;48.518;9.124;2023-08-20T04:42:31;12.82;;;7.97;;
31734;SDS011;18313;48.518;9.124;2023-08-20T04:44:58;11.95;;;7.70;;
31734;SDS011;18313;48.518;9.124;2023-08-20T04:47:25;8.93;;;7.93;;
31734;SDS011;18313;48.518;9.124;2023-08-20T04:49:53;11.35;;;8.15;;
31734;SDS011;18313;48.518;9.124;2023-08-20T04:52:20;13.18;;;8.48;;
31734;SDS011;18313;48.518;9.124;2023-08-20T04:54:47;13.27;;;8.00;;
31734;SDS011;18313;48.518;9.124;2023-08-20T04:57:14;9.00;;;7.90;;
31734;SDS011;18313;48.518;9.124;2023-08-20T04:59:42;14.10;;;8.25;;
31734;SDS011;18313;48.518;9.124;2023-08-20T05:02:11;11.85;;;8.10;;
31734;SDS011;18313;48.518;9.124;2023-08-20T05:04:39;11.05;;;7.93;;
31734;SDS011;18313;48.518;9.124;2023-08-20T05:07:07;11.25;;;9.18;;
31734;SDS011;18313;48.518;9.124;2023-08-20T05:09:34;12.15;;;8.27;;
31734;SDS011;18313;48.518;9.124;2023-08-20T05:12:01;11.88;;;8.63;;
31734;SDS011;18313;48.518;9.124;2023-08-20T05:14:31;14.00;;;8.63;;
31734;SDS011;18313;48.518;9.124;2023-08-20T05:16:58;14.20;;;9.32;;
31734;SDS011;18313;48.518;9.124;2023-08-20T05:19:25;12.95;;;8.57;;
31734;SDS011;18313;48.518;9.124;2023-08-20T05:21:52;13.63;;;9.20;;
31734;SDS011;18313;48.518;9.124;2023-08-20T05:24:22;13.18;;;8.80;;
31734;SDS011;18313;48.518;9.124;2023-08-20T05:27:03;14.63;;;9.20;;
31734;SDS011;18313;48.518;9.124;2023-08-20T05:29:31;15.93;;;9.25;;
31734;SDS011;18313;48.518;9.124;2023-08-20T05:31:58;11.85;;;8.50;;
31734;SDS011;18313;48.518;9.124;2023-08-20T05:34:25;15.63;;;8.90;;
31734;SDS011;18313;48.518;9.124;2023-08-20T05:36:53;10.02;;;7.95;;
31734;SDS011;18313;48.518;9.124;2023-08-20T05:39:20;15.85;;;8.25;;
31734;SDS011;18313;48.518;9.124;2023-08-20T05:41:47;13.10;;;8.50;;
31734;SDS011;18313;48.518;9.124;2023-08-20T05:44:14;12.20;;;8.75;;
31734;SDS011;18313;48.518;9.124;2023-08-20T05:46:41;12.63;;;9.10;;
31734;SDS011;18313;48.518;9.124;2023-08-20T05:49:09;10.55;;;8.52;;
31734;SDS011;18313;48.518;9.124;2023-08-20T05:51:36;12.25;;;9.70;;
31734;SDS011;18313;48.518;9.124;2023-08-20T05:54:03;10.93;;;8.32;;
31734;SDS011;18313;48.518;9.124;2023-08-20T05:56:30;13.40;;;9.02;;
31734;SDS011;18313;48.518;9.124;2023-08-20T05:58:57;11.70;;;9.13;;
31734;SDS011;18313;48.518;9.124;2023-08-20T06:01:24;13.63;;;9.07;;
31734;SDS011;18313;48.518;9.124;2023-08-20T06:03:52;11.30;;;9.02;;
31734;SDS011;18313;48.518;9.124;2023-08-20T06:06:19;14.48;;;8.93;;
31734;SDS011;18313;48.518;9.124;2023-08-20T06:08:47;11.55;;;8.57;;
31734;SDS011;18313;48.518;9.124;2023-08-20T06:11:33;11.85;;;8.43;;
31734;SDS011;18313;48.518;9.124;2023-08-20T06:14:00;12.05;;;8.13;;
31734;SDS011;18313;48.518;9.124;2023-08-20T06:16:27;12.77;;;8.57;;
31734;SDS011;18313;48.518;9.124;2023-08-20T06:18:54;13.45;;;9.15;;
31734;SDS011;18313;48.518;9.124;2023-08-20T06:21:22;12.20;;;8.40;;
31734;SDS011;18313;48.518;9.124;2023-08-20T06:23:49;12.15;;;8.85;;
31734;SDS011;18313;48.518;9.124;2023-08-20T06:26:16;12.43;;;8.52;;
31734;SDS011;18313;48.518;9.124;2023-08-20T06:28:43;13.82;;;8.98;;
31734;SDS011;18313;48.518;9.124;2023-08-20T06:31:11;12.23;;;8.75;;
31734;SDS011;18313;48.518;9.124;2023-08-20T06:33:38;10.10;;;8.02;;
31734;SDS011;18313;48.518;9.124;2023-08-20T06:36:05;9.15;;;8.10;;
31734;SDS011;18313;48.518;9.124;2023-08-20T06:38:32;14.38;;;8.77;;
31734;SDS011;18313;48.518;9.124;2023-08-20T06:40:59;12.48;;;8.60;;
31734;SDS011;18313;48.518;9.124;2023-08-20T06:43:26;15.82;;;9.30;;
31734;SDS011;18313;48.518;9.124;2023-08-20T06:45:53;17.33;;;9.25;;
31734;SDS011;18313;48.518;9.124;2023-08-20T06:48:21;10.35;;;8.07;;
31734;SDS011;18313;48.518;9.124;2023-08-20T06:50:50;11.55;;;8.77;;
31734;SDS011;18313;48.518;9.124;2023-08-20T06:53:17;11.48;;;8.85;;
31734;SDS011;18313;48.518;9.124;2023-08-20T06:55:44;13.38;;;8.50;;
31734;SDS011;18313;48.518;9.124;2023-08-20T06:58:11;8.98;;;7.68;;
31734;SDS011;18313;48.518;9.124;2023-08-20T07:00:38;10.02;;;7.95;;
31734;SDS011;18313;48.518;9.124;2023-08-20T07:03:05;11.40;;;8.50;;
31734;SDS011;18313;48.518;9.124;2023-08-20T07:05:32;11.20;;;8.18;;
31734;SDS011;18313;48.518;9.124;2023-08-20T07:08:00;10.50;;;7.97;;
31734;SDS011;18313;48.518;9.124;2023-08-20T07:10:27;10.38;;;8.32;;
31734;SDS011;18313;48.518;9.124;2023-08-20T07:12:54;10.15;;;7.78;;
31734;SDS011;18313;48.518;9.124;2023-08-20T07:15:21;13.35;;;8.50;;
31734;SDS011;18313;48.518;9.124;2023-08-20T07:17:48;14.70;;;7.90;;
31734;SDS011;18313;48.518;9.124;2023-08-20T07:20:15;14.15;;;8.75;;
31734;SDS011;18313;48.518;9.124;2023-08-20T07:22:43;12.63;;;7.70;;
31734;SDS011;18313;48.518;9.124;2023-08-20T07:25:11;12.65;;;8.35;;
31734;SDS011;18313;48.518;9.124;2023-08-20T07:27:38;12.48;;;7.55;;
31734;SDS011;18313;48.518;9.124;2023-08-20T07:30:05;11.27;;;8.60;;
31734;SDS011;18313;48.518;9.124;2023-08-20T07:32:33;11.70;;;8.20;;
31734;SDS011;18313;48.518;9.124;2023-08-20T07:35:00;9.73;;;7.63;;
31734;SDS011;18313;48.518;9.124;2023-08-20T07:37:27;12.90;;;8.57;;
31734;SDS011;18313;48.518;9.124;2023-08-20T07:39:55;15.38;;;8.23;;
31734;SDS011;18313;48.518;9.124;2023-08-20T07:42:22;11.23;;;7.72;;
31734;SDS011;18313;48.518;9.124;2023-08-20T07:44:49;9.15;;;7.20;;
31734;SDS011;18313;48.518;9.124;2023-08-20T07:47:17;10.50;;;7.25;;
31734;SDS011;18313;48.518;9.124;2023-08-20T07:49:44;8.85;;;7.03;;
31734;SDS011;18313;48.518;9.124;2023-08-20T07:52:11;10.02;;;6.97;;
31734;SDS011;18313;48.518;9.124;2023-08-20T07:54:38;12.98;;;7.90;;
31734;SDS011;18313;48.518;9.124;2023-08-20T07:57:05;9.73;;;7.22;;
31734;SDS011;18313;48.518;9.124;2023-08-20T07:59:32;11.35;;;7.45;;
31734;SDS011;18313;48.518;9.124;2023-08-20T08:02:00;12.32;;;7.45;;
31734;SDS011;18313;48.518;9.124;2023-08-20T08:04:28;13.82;;;7.43;;
31734;SDS011;18313;48.518;9.124;2023-08-20T08:06:56;12.27;;;7.40;;
31734;SDS011;18313;48.518;9.124;2023-08-20T08:09:27;12.10;;;7.55;;
31734;SDS011;18313;48.518;9.124;2023-08-20T08:11:56;11.50;;;7.05;;
31734;SDS011;18313;48.518;9.124;2023-08-20T08:14:24;10.07;;;6.88;;
31734;SDS011;18313;48.518;9.124;2023-08-20T08:16:51;10.27;;;6.63;;
31734;SDS011;18313;48.518;9.124;2023-08-20T08:19:18;9.07;;;6.80;;
31734;SDS011;18313;48.518;9.124;2023-08-20T08:21:46;9.32;;;6.70;;
31734;SDS011;18313;48.518;9.124;2023-08-20T08:24:14;9.73;;;6.45;;
31734;SDS011;18313;48.518;9.124;2023-08-20T08:26:41;9.48;;;6.85;;
31734;SDS011;18313;48.518;9.124;2023-08-20T08:29:08;12.02;;;6.75;;
31734;SDS011;18313;48.518;9.124;2023-08-20T08:31:36;11.02;;;7.03;;
31734;SDS011;18313;48.518;9.124;2023-08-20T08:34:03;12.77;;;7.45;;
31734;SDS011;18313;48.518;9.124;2023-08-20T08:36:30;12.32;;;7.32;;
31734;SDS011;18313;48.518;9.124;2023-08-20T08:38:57;10.73;;;7.25;;
31734;SDS011;18313;48.518;9.124;2023-08-20T08:41:25;9.65;;;6.45;;
31734;SDS011;18313;48.518;9.124;2023-08-20T08:43:55;8.95;;;6.78;;
31734;SDS011;18313;48.518;9.124;2023-08-20T08:46:23;13.57;;;6.70;;
31734;SDS011;18313;48.518;9.124;2023-08-20T08:48:51;14.43;;;6.57;;
31734;SDS011;18313;48.518;9.124;2023-08-20T08:51:19;13.82;;;6.82;;
31734;SDS011;18313;48.518;9.124;2023-08-20T08:53:46;8.27;;;6.15;;
31734;SDS011;18313;48.518;9.124;2023-08-20T08:56:13;8.20;;;6.20;;
31734;SDS011;18313;48.518;9.124;2023-08-20T08:58:40;10.75;;;6.05;;
31734;SDS011;18313;48.518;9.124;2023-08-20T09:01:07;9.98;;;5.60;;
31734;SDS011;18313;48.518;9.124;2023-08-20T09:03:34;10.25;;;5.93;;
31734;SDS011;18313;48.518;9.124;2023-08-20T09:06:02;9.05;;;5.90;;
31734;SDS011;18313;48.518;9.124;2023-08-20T09:11:03;12.05;;;5.80;;
31734;SDS011;18313;48.518;9.124;2023-08-20T09:18:32;12.68;;;6.07;;
31734;SDS011;18313;48.518;9.124;2023-08-20T09:21:06;9.52;;;5.60;;
31734;SDS011;18313;48.518;9.124;2023-08-20T09:23:35;11.05;;;5.88;;
31734;SDS011;18313;48.518;9.124;2023-08-20T09:26:03;7.18;;;5.35;;
31734;SDS011;18313;48.518;9.124;2023-08-20T09:28:43;9.10;;;5.43;;
31734;SDS011;18313;48.518;9.124;2023-08-20T09:31:12;8.82;;;5.13;;
31734;SDS011;18313;48.518;9.124;2023-08-20T09:33:49;8.25;;;5.25;;
31734;SDS011;18313;48.518;9.124;2023-08-20T09:36:29;9.07;;;5.07;;
31734;SDS011;18313;48.518;9.124;2023-08-20T09:39:00;7.93;;;5.80;;
31734;SDS011;18313;48.518;9.124;2023-08-20T09:41:28;10.88;;;5.00;;
31734;SDS011;18313;48.518;9.124;2023-08-20T09:43:57;10.23;;;4.90;;
31734;SDS011;18313;48.518;9.124;2023-08-20T09:46:26;9.60;;;5.25;;
31734;SDS011;18313;48.518;9.124;2023-08-20T09:48:57;14.50;;;5.40;;
31734;SDS011;18313;48.518;9.124;2023-08-20T09:51:25;11.07;;;4.90;;
31734;SDS011;18313;48.518;9.124;2023-08-20T09:54:13;11.07;;;5.10;;
31734;SDS011;18313;48.518;9.124;2023-08-20T09:56:46;9.23;;;4.60;;
31734;SDS011;18313;48.518;9.124;2023-08-20T09:59:21;9.80;;;4.63;;
31734;SDS011;18313;48.518;9.124;2023-08-20T10:01:48;9.00;;;5.10;;
31734;SDS011;18313;48.518;9.124;2023-08-20T10:04:17;7.07;;;4.65;;
31734;SDS011;18313;48.518;9.124;2023-08-20T10:06:45;8.55;;;4.60;;
31734;SDS011;18313;48.518;9.124;2023-08-20T10:09:14;9.00;;;4.53;;
31734;SDS011;18313;48.518;9.124;2023-08-20T10:11:41;10.10;;;4.63;;
31734;SDS011;18313;48.518;9.124;2023-08-20T10:14:08;7.97;;;5.03;;
31734;SDS011;18313;48.518;9.124;2023-08-20T10:16:35;7.78;;;4.50;;
31734;SDS011;18313;48.518;9.124;2023-08-20T10:19:03;9.75;;;4.45;;
31734;SDS011;18313;48.518;9.124;2023-08-20T10:21:32;8.57;;;4.65;;
31734;SDS011;18313;48.518;9.124;2023-08-20T10:24:05;6.90;;;4.68;;
31734;SDS011;18313;48.518;9.124;2023-08-20T10:26:33;7.15;;;4.80;;
31734;SDS011;18313;48.518;9.124;2023-08-20T10:32:08;8.68;;;4.53;;
31734;SDS011;18313;48.518;9.124;2023-08-20T10:34:37;10.02;;;4.80;;
31734;SDS011;18313;48.518;9.124;2023-08-20T10:37:09;9.05;;;4.30;;
31734;SDS011;18313;48.518;9.124;2023-08-20T10:39:39;11.90;;;5.15;;
31734;SDS011;18313;48.518;9.124;2023-08-20T10:42:10;10.18;;;4.90;;
31734;SDS011;18313;48.518;9.124;2023-08-20T10:45:08;6.82;;;4.40;;
31734;SDS011;18313;48.518;9.124;2023-08-20T10:47:36;9.85;;;4.38;;
31734;SDS011;18313;48.518;9.124;2023-08-20T10:50:18;8.35;;;4.55;;
31734;SDS011;18313;48.518;9.124;2023-08-20T10:52:49;8.73;;;4.80;;
31734;SDS011;18313;48.518;9.124;2023-08-20T10:55:24;8.02;;;4.10;;
31734;SDS011;18313;48.518;9.124;2023-08-20T10:57:57;9.25;;;4.72;;
31734;SDS011;18313;48.518;9.124;2023-08-20T11:00:26;8.80;;;5.20;;
31734;SDS011;18313;48.518;9.124;2023-08-20T11:02:54;7.45;;;4.47;;
31734;SDS011;18313;48.518;9.124;2023-08-20T11:05:22;6.43;;;4.57;;
31734;SDS011;18313;48.518;9.124;2023-08-20T11:07:50;7.07;;;4.55;;
31734;SDS011;18313;48.518;9.124;2023-08-20T11:10:17;11.68;;;4.68;;
31734;SDS011;18313;48.518;9.124;2023-08-20T11:12:47;10.00;;;4.80;;
31734;SDS011;18313;48.518;9.124;2023-08-20T11:15:14;10.07;;;4.53;;
31734;SDS011;18313;48.518;9.124;2023-08-20T11:17:42;7.65;;;4.25;;
31734;SDS011;18313;48.518;9.124;2023-08-20T11:20:16;7.70;;;4.63;;
31734;SDS011;18313;48.518;9.124;2023-08-20T11:22:43;8.48;;;4.40;;
31734;SDS011;18313;48.518;9.124;2023-08-20T11:25:11;9.88;;;4.35;;
31734;SDS011;18313;48.518;9.124;2023-08-20T11:27:43;9.00;;;4.88;;
31734;SDS011;18313;48.518;9.124;2023-08-20T11:30:10;6.53;;;4.15;;
31734;SDS011;18313;48.518;9.124;2023-08-20T11:32:43;10.98;;;4.10;;
31734;SDS011;18313;48.518;9.124;2023-08-20T11:35:12;7.68;;;4.40;;
31734;SDS011;18313;48.518;9.124;2023-08-20T11:37:40;8.57;;;4.38;;
31734;SDS011;18313;48.518;9.124;2023-08-20T11:40:07;10.27;;;4.38;;
31734;SDS011;18313;48.518;9.124;2023-08-20T11:42:35;8.60;;;4.35;;
31734;SDS011;18313;48.518;9.124;2023-08-20T11:45:02;8.38;;;4.03;;
31734;SDS011;18313;48.518;9.124;2023-08-20T11:47:30;6.57;;;4.05;;
31734;SDS011;18313;48.518;9.124;2023-08-20T11:50:05;8.85;;;4.40;;
31734;SDS011;18313;48.518;9.124;2023-08-20T11:52:33;7.55;;;4.45;;
31734;SDS011;18313;48.518;9.124;2023-08-20T11:55:01;8.45;;;4.20;;
31734;SDS011;18313;48.518;9.124;2023-08-20T11:57:29;8.75;;;4.03;;
31734;SDS011;18313;48.518;9.124;2023-08-20T12:00:00;8.40;;;4.50;;
31734;SDS011;18313;48.518;9.124;2023-08-20T12:02:35;6.72;;;4.47;;
31734;SDS011;18313;48.518;9.124;2023-08-20T12:05:06;8.02;;;4.30;;
31734;SDS011;18313;48.518;9.124;2023-08-20T12:07:33;7.15;;;4.25;;
31734;SDS011;18313;48.518;9.124;2023-08-20T12:10:18;8.68;;;4.13;;
31734;SDS011;18313;48.518;9.124;2023-08-20T12:12:48;8.13;;;4.30;;
31734;SDS011;18313;48.518;9.124;2023-08-20T12:15:19;7.38;;;4.32;;
31734;SDS011;18313;48.518;9.124;2023-08-20T12:18:02;7.38;;;4.32;;
31734;SDS011;18313;48.518;9.124;2023-08-20T12:20:32;7.70;;;4.32;;
31734;SDS011;18313;48.518;9.124;2023-08-20T12:23:01;10.45;;;4.28;;
31734;SDS011;18313;48.518;9.124;2023-08-20T12:25:30;8.23;;;4.10;;
31734;SDS011;18313;48.518;9.124;2023-08-20T12:28:01;8.55;;;4.50;;
31734;SDS011;18313;48.518;9.124;2023-08-20T12:30:30;9.57;;;4.30;;
31734;SDS011;18313;48.518;9.124;2023-08-20T12:33:01;10.32;;;4.47;;
31734;SDS011;18313;48.518;9.124;2023-08-20T12:35:30;8.82;;;4.20;;
31734;SDS011;18313;48.518;9.124;2023-08-20T12:37:57;7.72;;;4.47;;
31734;SDS011;18313;48.518;9.124;2023-08-20T12:40:24;7.60;;;4.30;;
31734;SDS011;18313;48.518;9.124;2023-08-20T12:42:51;7.10;;;4.20;;
31734;SDS011;18313;48.518;9.124;2023-08-20T12:45:18;7.20;;;4.28;;
31734;SDS011;18313;48.518;9.124;2023-08-20T12:47:45;13.57;;;4.30;;
31734;SDS011;18313;48.518;9.124;2023-08-20T12:50:13;8.63;;;4.40;;
31734;SDS011;18313;48.518;9.124;2023-08-20T12:52:40;11.98;;;4.45;;
31734;SDS011;18313;48.518;9.124;2023-08-20T12:55:09;9.80;;;3.95;;
31734;SDS011;18313;48.518;9.124;2023-08-20T12:57:51;8.60;;;4.40;;
31734;SDS011;18313;48.518;9.124;2023-08-20T13:00:21;8.05;;;3.97;;
31734;SDS011;18313;48.518;9.124;2023-08-20T13:02:48;8.93;;;4.57;;
31734;SDS011;18313;48.518;9.124;2023-08-20T13:05:16;10.55;;;4.40;;
31734;SDS011;18313;48.518;9.124;2023-08-20T13:07:44;9.07;;;3.95;;
31734;SDS011;18313;48.518;9.124;2023-08-20T13:10:11;8.27;;;3.90;;
31734;SDS011;18313;48.518;9.124;2023-08-20T13:12:42;8.23;;;4.30;;
31734;SDS011;18313;48.518;9.124;2023-08-20T13:15:16;7.57;;;3.70;;
31734;SDS011;18313;48.518;9.124;2023-08-20T13:17:45;6.85;;;3.90;;
31734;SDS011;18313;48.518;9.124;2023-08-20T13:20:13;7.18;;;4.13;;
31734;SDS011;18313;48.518;9.124;2023-08-20T13:22:41;11.32;;;4.60;;
31734;SDS011;18313;48.518;9.124;2023-08-20T13:25:09;11.82;;;4.10;;
31734;SDS011;18313;48.518;9.124;2023-08-20T13:27:39;10.20;;;4.20;;
31734;SDS011;18313;48.518;9.124;2023-08-20T13:30:06;9.35;;;4.85;;
31734;SDS011;18313;48.518;9.124;2023-08-20T13:32:35;10.80;;;4.20;;
31734;SDS011;18313;48.518;9.124;2023-08-20T13:35:03;19.00;;;4.63;;
31734;SDS011;18313;48.518;9.124;2023-08-20T13:37:31;10.70;;;4.63;;
31734;SDS011;18313;48.518;9.124;2023-08-20T13:39:59;8.75;;;4.18;;
31734;SDS011;18313;48.518;9.124;2023-08-20T13:42:28;9.20;;;4.03;;
31734;SDS011;18313;48.518;9.124;2023-08-20T13:44:55;12.18;;;4.40;;
31734;SDS011;18313;48.518;9.124;2023-08-20T13:47:22;9.23;;;4.65;;
31734;SDS011;18313;48.518;9.124;2023-08-20T13:49:49;8.50;;;4.60;;
31734;SDS011;18313;48.518;9.124;2023-08-20T13:52:16;8.43;;;4.32;;
31734;SDS011;18313;48.518;9.124;2023-08-20T13:54:43;9.65;;;4.22;;
31734;SDS011;18313;48.518;9.124;2023-08-20T13:57:10;9.52;;;4.28;;
31734;SDS011;18313;48.518;9.124;2023-08-20T13:59:37;12.27;;;4.82;;
31734;SDS011;18313;48.518;9.124;2023-08-20T14:02:05;6.97;;;4.40;;
31734;SDS011;18313;48.518;9.124;2023-08-20T14:04:32;9.10;;;4.13;;
31734;SDS011;18313;48.518;9.124;2023-08-20T14:06:59;10.40;;;4.60;;
31734;SDS011;18313;48.518;9.124;2023-08-20T14:09:26;8.05;;;4.07;;
31734;SDS011;18313;48.518;9.124;2023-08-20T14:11:56;9.95;;;4.32;;
31734;SDS011;18313;48.518;9.124;2023-08-20T14:14:24;9.90;;;4.53;;
31734;SDS011;18313;48.518;9.124;2023-08-20T14:16:50;9.65;;;4.50;;
31734;SDS011;18313;48.518;9.124;2023-08-20T14:19:17;7.93;;;4.40;;
31734;SDS011;18313;48.518;9.124;2023-08-20T14:21:51;14.02;;;4.70;;
31734;SDS011;18313;48.518;9.124;2023-08-20T14:24:21;7.53;;;4.30;;
31734;SDS011;18313;48.518;9.124;2023-08-20T14:26:48;8.98;;;4.47;;
31734;SDS011;18313;48.518;9.124;2023-08-20T14:29:16;8.25;;;4.00;;
31734;SDS011;18313;48.518;9.124;2023-08-20T14:31:47;6.95;;;4.40;;
31734;SDS011;18313;48.518;9.124;2023-08-20T14:34:14;9.55;;;4.43;;
31734;SDS011;18313;48.518;9.124;2023-08-20T14:36:41;7.57;;;3.97;;
31734;SDS011;18313;48.518;9.124;2023-08-20T14:39:09;11.95;;;4.78;;
31734;SDS011;18313;48.518;9.124;2023-08-20T14:41:36;7.68;;;4.38;;
31734;SDS011;18313;48.518;9.124;2023-08-20T14:44:04;12.70;;;4.72;;
31734;SDS011;18313;48.518;9.124;2023-08-20T14:46:40;10.98;;;4.70;;
31734;SDS011;18313;48.518;9.124;2023-08-20T14:49:07;9.77;;;4.68;;
31734;SDS011;18313;48.518;9.124;2023-08-20T14:51:34;11.55;;;4.40;;
31734;SDS011;18313;48.518;9.124;2023-08-20T14:54:01;9.82;;;4.30;;
31734;SDS011;18313;48.518;9.124;2023-08-20T14:56:30;9.75;;;4.40;;
31734;SDS011;18313;48.518;9.124;2023-08-20T14:58:57;9.77;;;4.20;;
31734;SDS011;18313;48.518;9.124;2023-08-20T15:01:24;9.23;;;4.63;;
31734;SDS011;18313;48.518;9.124;2023-08-20T15:03:51;12.40;;;3.97;;
31734;SDS011;18313;48.518;9.124;2023-08-20T15:06:21;7.80;;;3.95;;